Time;durP1;ratioP1;P1;durP2;ratioP2;P2;SDS_P1;SDS_P2;PMS_P1;PMS_P2;Temp;Humidity;BMP_temperature;BMP_pressure;BME280_temperature;BME280_humidity;BME280_pressure;Samples;Min_cycle;Max_cycle;Signal;HPM_P1;HPM_P2
2021/08/31 00:00:04;;;;;;;7.93;4.80;;;;;;;16.80;72.80;101204.59;691734;28;21517;-68
2021/08/31 00:00:26;;;;;;;8.27;5.10;;;;;;;16.80;72.78;101201.03;691305;28;46158;-68
2021/08/31 00:00:47;;;;;;;6.50;5.07;;;;;;;16.78;72.79;101203.13;692519;28;22469;-67
2021/08/31 00:01:10;;;;;;;7.28;5.07;;;;;;;16.79;72.79;101208.38;691293;28;44414;-68
2021/08/31 00:01:31;;;;;;;6.75;4.97;;;;;;;16.78;72.89;101200.41;691311;28;46358;-68
2021/08/31 00:01:52;;;;;;;8.82;5.43;;;;;;;16.79;72.69;101205.66;691709;28;21532;-68
2021/08/31 00:02:14;;;;;;;7.95;5.53;;;;;;;16.80;72.78;101206.50;692525;28;23476;-68
2021/08/31 00:02:35;;;;;;;6.05;5.07;;;;;;;16.80;72.81;101206.50;691722;28;47067;-68
2021/08/31 00:02:56;;;;;;;6.22;4.90;;;;;;;16.78;72.79;101203.13;693388;28;1098;-67
2021/08/31 00:03:18;;;;;;;5.63;5.07;;;;;;;16.78;72.72;101206.69;690818;28;21496;-67
2021/08/31 00:03:40;;;;;;;7.05;5.03;;;;;;;16.80;72.52;101211.94;691729;28;22261;-68
2021/08/31 00:04:01;;;;;;;6.82;4.90;;;;;;;16.78;72.71;101201.25;691286;28;45272;-68
2021/08/31 00:04:22;;;;;;;7.70;5.10;;;;;;;16.77;72.56;101207.75;692471;28;22381;-67
2021/08/31 00:04:43;;;;;;;6.60;5.10;;;;;;;16.77;72.56;101207.75;692420;28;21410;-67
2021/08/31 00:05:05;;;;;;;6.93;5.22;;;;;;;16.78;72.68;101214.03;692100;28;22328;-69
2021/08/31 00:05:26;;;;;;;5.97;5.15;;;;;;;16.76;72.72;101209.63;691281;28;45232;-67
2021/08/31 00:05:47;;;;;;;7.32;5.22;;;;;;;16.76;72.61;101209.63;691083;28;23530;-68
2021/08/31 00:06:08;;;;;;;8.40;5.00;;;;;;;16.72;72.61;101202.06;691599;28;22374;-67
2021/08/31 00:06:30;;;;;;;7.82;5.07;;;;;;;16.75;72.73;101216.16;690979;28;44381;-67
2021/08/31 00:06:51;;;;;;;6.78;5.25;;;;;;;16.75;72.62;101201.66;690925;28;45614;-67
2021/08/31 00:07:13;;;;;;;8.25;5.43;;;;;;;16.75;72.74;101210.69;692083;28;22436;-68
2021/08/31 00:07:35;;;;;;;9.07;5.28;;;;;;;16.74;72.59;101210.91;692282;28;23463;-68
2021/08/31 00:07:56;;;;;;;7.43;4.72;;;;;;;16.74;72.76;101211.72;691104;28;45269;-67
2021/08/31 00:08:17;;;;;;;6.03;5.03;;;;;;;16.73;72.61;101211.94;692254;28;23488;-68
2021/08/31 00:08:38;;;;;;;5.72;5.20;;;;;;;16.74;72.74;101213.63;692586;28;8892;-67
2021/08/31 00:08:59;;;;;;;5.68;5.18;;;;;;;16.74;72.72;101210.91;692496;28;22478;-67
2021/08/31 00:09:21;;;;;;;5.53;5.00;;;;;;;16.74;72.64;101217.19;691052;28;23458;-68
2021/08/31 00:09:43;;;;;;;6.95;5.20;;;;;;;16.73;72.74;101209.22;691505;28;44476;-68
2021/08/31 00:10:05;;;;;;;8.43;5.63;;;;;;;16.75;72.66;101216.16;691139;28;44372;-69
2021/08/31 00:10:28;;;;;;;8.73;5.03;;;;;;;16.76;72.61;101214.25;691185;28;46350;-67
2021/08/31 00:10:49;;;;;;;6.63;5.00;;;;;;;16.76;72.67;101215.09;690689;28;67524;-70
2021/08/31 00:11:10;;;;;;;6.45;4.90;;;;;;;16.75;72.71;101209.84;692422;28;22414;-67
2021/08/31 00:11:31;;;;;;;7.82;5.00;;;;;;;16.75;72.42;101213.44;692127;28;23497;-69
2021/08/31 00:11:53;;;;;;;6.82;4.85;;;;;;;16.75;72.57;101218.03;691996;28;22314;-67
2021/08/31 00:12:14;;;;;;;6.07;4.82;;;;;;;16.74;72.40;101214.47;691292;28;45337;-67
2021/08/31 00:12:35;;;;;;;5.72;4.50;;;;;;;16.75;72.53;101215.28;691732;28;22065;-68
2021/08/31 00:12:56;;;;;;;8.50;4.82;;;;;;;16.74;72.51;101208.19;691809;28;22411;-67
2021/08/31 00:13:17;;;;;;;8.30;5.18;;;;;;;16.73;72.68;101215.50;691364;28;22448;-67
2021/08/31 00:13:39;;;;;;;7.68;4.85;;;;;;;16.73;72.74;101214.66;691581;28;22052;-67
2021/08/31 00:14:00;;;;;;;7.63;4.97;;;;;;;16.73;72.50;101207.31;691017;28;45196;-69
2021/08/31 00:14:22;;;;;;;6.80;5.22;;;;;;;16.72;72.76;101211.09;692195;28;23474;-68
2021/08/31 00:14:43;;;;;;;6.40;5.18;;;;;;;16.73;72.46;101210.03;692242;28;21316;-67
2021/08/31 00:15:06;;;;;;;8.18;5.30;;;;;;;16.73;72.81;101222.84;692188;28;21525;-68
2021/08/31 00:15:28;;;;;;;5.07;4.50;;;;;;;16.73;72.58;101212.78;689725;28;92299;-68
2021/08/31 00:15:49;;;;;;;5.50;5.00;;;;;;;16.73;72.50;101214.66;692412;28;22420;-68
2021/08/31 00:16:12;;;;;;;6.13;5.10;;;;;;;16.73;72.60;101215.50;691773;28;22188;-68
2021/08/31 00:16:33;;;;;;;6.95;4.97;;;;;;;16.74;72.48;101210.91;689735;28;90357;-67
2021/08/31 00:16:54;;;;;;;10.07;5.60;;;;;;;16.73;72.54;101203.75;691948;28;22395;-67
2021/08/31 00:17:17;;;;;;;7.80;4.97;;;;;;;16.69;72.43;101210.66;692009;28;23426;-68
2021/08/31 00:17:38;;;;;;;7.40;5.00;;;;;;;16.71;72.50;101208.59;690319;28;67509;-69
2021/08/31 00:18:01;;;;;;;8.30;4.95;;;;;;;16.71;72.50;101208.59;692328;28;22298;-68
2021/08/31 00:18:22;;;;;;;7.65;4.90;;;;;;;16.71;72.47;101208.59;691248;28;46395;-68
2021/08/31 00:18:44;;;;;;;7.80;5.10;;;;;;;16.71;72.55;101209.41;691923;28;21585;-68
2021/08/31 00:19:05;;;;;;;6.93;4.95;;;;;;;16.70;72.43;101213.19;691585;28;46335;-67
2021/08/31 00:19:26;;;;;;;7.13;5.20;;;;;;;16.71;72.60;101209.41;692423;28;23523;-67
2021/08/31 00:19:47;;;;;;;7.65;5.10;;;;;;;16.71;72.49;101211.31;691697;28;23730;-69
2021/08/31 00:20:10;;;;;;;6.95;5.10;;;;;;;16.72;72.49;101212.97;690919;28;22420;-67
2021/08/31 00:20:31;;;;;;;7.65;5.45;;;;;;;16.68;72.63;101207.09;688809;28;92254;-68
2021/08/31 00:20:52;;;;;;;5.82;5.10;;;;;;;16.71;72.40;101206.69;691904;28;23429;-67
2021/08/31 00:21:14;;;;;;;5.75;4.75;;;;;;;16.71;72.51;101214.88;691632;28;23423;-67
2021/08/31 00:21:36;;;;;;;5.72;4.78;;;;;;;16.71;72.48;101212.16;691836;28;23410;-67
2021/08/31 00:21:57;;;;;;;7.97;4.90;;;;;;;16.70;72.47;101209.63;690594;28;44389;-67
2021/08/31 00:22:18;;;;;;;7.10;5.07;;;;;;;16.71;72.62;101206.69;692257;28;22469;-67
2021/08/31 00:22:39;;;;;;;6.53;5.00;;;;;;;16.72;72.52;101210.25;692049;28;23639;-67
2021/08/31 00:23:01;;;;;;;7.72;5.40;;;;;;;16.72;72.48;101207.53;692150;28;23511;-67
2021/08/31 00:23:22;;;;;;;8.52;5.70;;;;;;;16.72;72.51;101212.97;691028;28;46333;-67
2021/08/31 00:23:43;;;;;;;6.38;5.25;;;;;;;16.72;72.43;101210.25;692065;28;23396;-68
2021/08/31 00:24:04;;;;;;;7.40;4.85;;;;;;;16.71;72.53;101212.16;693192;28;978;-67
2021/08/31 00:24:26;;;;;;;6.95;4.90;;;;;;;16.72;72.43;101215.69;692402;28;22428;-71
2021/08/31 00:24:47;;;;;;;7.87;5.30;;;;;;;16.69;72.51;101214.25;690291;28;69450;-68
2021/08/31 00:25:09;;;;;;;5.43;4.90;;;;;;;16.71;72.39;101211.31;690674;28;46338;-67
2021/08/31 00:25:32;;;;;;;5.88;5.03;;;;;;;16.71;72.38;101217.59;692094;28;21526;-67
2021/08/31 00:25:53;;;;;;;6.40;4.95;;;;;;;16.70;72.26;101213.19;690355;28;69437;-67
2021/08/31 00:26:14;;;;;;;6.50;4.78;;;;;;;16.70;72.29;101218.63;692405;28;21567;-67
2021/08/31 00:26:35;;;;;;;7.32;5.00;;;;;;;16.69;72.41;101214.25;692397;28;22410;-68
2021/08/31 00:26:57;;;;;;;6.97;4.95;;;;;;;16.70;72.41;101215.91;691743;28;21539;-67
2021/08/31 00:27:18;;;;;;;6.55;5.13;;;;;;;16.70;72.38;101218.63;691262;28;46327;-67
2021/08/31 00:27:39;;;;;;;7.15;5.10;;;;;;;16.69;72.42;101214.25;691526;28;22235;-67
2021/08/31 00:28:00;;;;;;;7.18;5.05;;;;;;;16.69;72.48;101218.84;691926;28;23437;-67
2021/08/31 00:28:22;;;;;;;5.32;4.82;;;;;;;16.67;72.33;101207.31;691776;28;22297;-69
2021/08/31 00:28:43;;;;;;;6.60;4.97;;;;;;;16.69;72.46;101210.66;691430;28;47635;-68
2021/08/31 00:29:04;;;;;;;7.05;5.20;;;;;;;16.67;72.27;101208.13;692256;28;21529;-68
2021/08/31 00:29:26;;;;;;;7.45;5.35;;;;;;;16.67;72.36;101210.03;692437;28;22405;-69
2021/08/31 00:29:48;;;;;;;7.90;5.30;;;;;;;16.64;72.49;101208.53;691708;28;46327;-67
2021/08/31 00:30:10;;;;;;;7.10;5.00;;;;;;;16.67;72.41;101205.41;691213;28;47017;-67
2021/08/31 00:30:31;;;;;;;7.03;5.35;;;;;;;16.68;72.25;101214.44;691529;28;44460;-68
2021/08/31 00:30:52;;;;;;;8.93;5.25;;;;;;;16.67;72.30;101210.03;692479;28;22322;-66
2021/08/31 00:31:16;;;;;;;6.32;5.07;;;;;;;16.66;72.37;101201.03;692250;28;22451;-68
2021/08/31 00:31:37;;;;;;;6.40;5.20;;;;;;;16.67;72.19;101210.03;689313;28;93115;-67
2021/08/31 00:31:58;;;;;;;7.70;4.85;;;;;;;16.67;72.44;101210.88;691579;28;23553;-68
2021/08/31 00:32:20;;;;;;;8.20;5.20;;;;;;;16.67;72.29;101210.03;691565;28;46258;-67
2021/08/31 00:32:41;;;;;;;7.05;5.05;;;;;;;16.65;72.14;101204.78;691517;28;45257;-67
2021/08/31 00:33:02;;;;;;;6.43;5.07;;;;;;;16.65;72.42;101204.78;692350;28;21561;-67
2021/08/31 00:33:23;;;;;;;8.55;5.10;;;;;;;16.65;72.36;101210.25;691766;28;22375;-69
2021/08/31 00:33:45;;;;;;;6.13;4.93;;;;;;;16.68;72.28;101200.81;691723;28;21531;-67
2021/08/31 00:34:07;;;;;;;7.53;5.32;;;;;;;16.66;72.35;101203.75;692376;28;23496;-68
2021/08/31 00:34:28;;;;;;;6.50;5.00;;;;;;;16.66;72.33;101205.63;689705;28;44407;-68
2021/08/31 00:34:49;;;;;;;5.53;4.60;;;;;;;16.64;72.31;101192.19;691156;28;23664;-67
2021/08/31 00:35:10;;;;;;;6.40;4.82;;;;;;;16.65;72.20;101201.22;689832;28;44398;-67
2021/08/31 00:35:32;;;;;;;6.45;5.20;;;;;;;16.64;72.37;101199.53;690439;28;23840;-67
2021/08/31 00:35:54;;;;;;;6.88;5.03;;;;;;;16.66;72.47;101203.75;689981;28;45262;-67
2021/08/31 00:36:15;;;;;;;7.75;5.00;;;;;;;16.65;72.34;101202.06;690996;28;21564;-66
2021/08/31 00:36:36;;;;;;;5.68;4.72;;;;;;;16.63;72.42;101201.44;692048;28;22387;-69
2021/08/31 00:36:58;;;;;;;6.85;4.50;;;;;;;16.65;72.07;101202.06;691873;28;21520;-67
2021/08/31 00:37:19;;;;;;;7.60;4.93;;;;;;;16.66;72.20;101205.63;691415;28;46350;-68
2021/08/31 00:37:40;;;;;;;5.10;4.60;;;;;;;16.65;72.21;101206.69;691868;28;12324;-68
2021/08/31 00:38:02;;;;;;;7.40;4.90;;;;;;;16.65;72.16;101212.13;692141;28;23400;-67
2021/08/31 00:38:23;;;;;;;6.20;4.40;;;;;;;16.64;72.00;101205.00;691495;28;46581;-66
2021/08/31 00:38:44;;;;;;;5.80;4.70;;;;;;;16.63;71.85;101200.56;692285;28;22407;-67
2021/08/31 00:39:05;;;;;;;6.53;4.70;;;;;;;16.64;72.14;101202.25;691550;28;44208;-69
2021/08/31 00:39:27;;;;;;;7.10;4.68;;;;;;;16.64;72.14;101202.25;691533;28;46606;-68
2021/08/31 00:39:49;;;;;;;6.82;5.32;;;;;;;16.63;72.17;101195.13;691226;28;46370;-67
2021/08/31 00:40:11;;;;;;;6.93;5.35;;;;;;;16.63;72.13;101200.56;691873;28;21393;-68
2021/08/31 00:40:32;;;;;;;7.60;5.13;;;;;;;16.61;72.09;101202.69;691505;28;44309;-68
2021/08/31 00:40:54;;;;;;;6.32;4.90;;;;;;;16.63;72.17;101203.31;692366;28;22414;-67
2021/08/31 00:41:15;;;;;;;6.28;4.70;;;;;;;16.63;72.24;101208.75;691560;28;45507;-67
2021/08/31 00:41:36;;;;;;;6.40;4.70;;;;;;;16.63;72.15;101197.84;691737;28;24185;-67
2021/08/31 00:41:58;;;;;;;6.20;4.75;;;;;;;16.63;72.31;101200.56;691488;28;21549;-67
2021/08/31 00:42:20;;;;;;;8.05;4.93;;;;;;;16.62;72.16;101204.38;691076;28;45253;-67
2021/08/31 00:42:41;;;;;;;8.10;5.13;;;;;;;16.63;71.97;101204.16;691422;28;45235;-67
2021/08/31 00:43:02;;;;;;;8.07;4.95;;;;;;;16.61;72.19;101199.94;692345;28;22409;-67
2021/08/31 00:43:23;;;;;;;8.88;5.28;;;;;;;16.62;72.07;101201.63;691640;28;21532;-67
2021/08/31 00:43:46;;;;;;;8.82;5.47;;;;;;;16.60;72.26;101198.25;691819;28;21543;-67
2021/08/31 00:44:16;;;;;;;7.20;4.80;;;;;;;16.60;72.13;101204.56;690428;28;69289;-67
2021/08/31 00:44:37;;;;;;;6.97;5.30;;;;;;;16.62;72.15;101210.66;688209;28;137849;-67
2021/08/31 00:44:58;;;;;;;6.30;5.20;;;;;;;16.61;72.20;101205.41;692097;28;22421;-68
2021/08/31 00:45:20;;;;;;;6.10;4.78;;;;;;;16.60;72.06;101206.44;691411;28;22259;-68
2021/08/31 00:45:41;;;;;;;7.32;4.72;;;;;;;16.61;72.13;101208.97;691326;28;44348;-67
2021/08/31 00:46:02;;;;;;;6.28;4.78;;;;;;;16.61;72.10;101211.69;691944;28;22418;-68
2021/08/31 00:46:24;;;;;;;5.93;4.63;;;;;;;16.60;72.26;101204.56;692080;28;21547;-67
2021/08/31 00:46:46;;;;;;;8.88;4.82;;;;;;;16.61;72.08;101208.13;691211;28;46459;-68
2021/08/31 00:47:08;;;;;;;9.57;5.40;;;;;;;16.60;72.06;101211.88;690232;28;46432;-68
2021/08/31 00:47:29;;;;;;;7.32;4.72;;;;;;;16.61;72.09;101205.41;691315;28;43906;-67
2021/08/31 00:47:50;;;;;;;6.57;5.20;;;;;;;16.58;71.98;101206.63;691409;28;23417;-68
2021/08/31 00:48:12;;;;;;;6.55;5.22;;;;;;;16.60;72.08;101207.28;692251;28;23508;-67
2021/08/31 00:48:33;;;;;;;6.72;5.00;;;;;;;16.58;71.95;101201.19;690982;28;45027;-67
2021/08/31 00:48:54;;;;;;;5.97;4.63;;;;;;;16.60;71.99;101211.88;692012;28;23331;-68
2021/08/31 00:49:15;;;;;;;7.22;4.53;;;;;;;16.59;72.14;101205.59;692397;28;23473;-67
2021/08/31 00:49:37;;;;;;;5.93;4.55;;;;;;;16.58;72.16;101207.50;692530;28;21537;-68
2021/08/31 00:49:59;;;;;;;5.63;4.65;;;;;;;16.58;72.11;101199.31;691953;28;21529;-67
2021/08/31 00:50:21;;;;;;;7.32;4.80;;;;;;;16.58;72.01;101204.78;690892;28;44412;-67
2021/08/31 00:50:42;;;;;;;5.35;4.63;;;;;;;16.58;72.08;101207.50;691543;28;46334;-67
2021/08/31 00:51:03;;;;;;;6.45;4.70;;;;;;;16.59;72.16;101208.34;692402;28;21527;-68
2021/08/31 00:51:24;;;;;;;6.00;4.60;;;;;;;16.60;72.17;101214.63;691733;28;22397;-67
2021/08/31 00:51:47;;;;;;;6.82;4.90;;;;;;;16.59;72.25;101205.59;692171;28;22534;-67
2021/08/31 00:52:08;;;;;;;6.68;4.65;;;;;;;16.58;72.25;101207.50;690447;28;69446;-68
2021/08/31 00:52:29;;;;;;;7.70;4.97;;;;;;;16.60;72.15;101214.63;692365;28;22446;-68
2021/08/31 00:52:52;;;;;;;6.68;5.30;;;;;;;16.60;72.23;101207.28;692340;28;22425;-68
2021/08/31 00:53:13;;;;;;;6.13;4.90;;;;;;;16.60;72.15;101215.47;690517;28;67518;-68
2021/08/31 00:53:34;;;;;;;6.97;5.05;;;;;;;16.60;72.20;101211.88;688555;28;43274;-67
2021/08/31 00:53:56;;;;;;;5.78;5.13;;;;;;;16.59;72.19;101205.59;688540;28;46302;-68
2021/08/31 00:54:19;;;;;;;5.57;4.68;;;;;;;16.61;72.33;101216.31;688429;28;46347;-67
2021/08/31 00:54:40;;;;;;;7.13;4.80;;;;;;;16.61;72.15;101222.59;687489;28;69748;-69
2021/08/31 00:55:01;;;;;;;7.80;5.13;;;;;;;16.61;72.10;101222.59;689030;28;23478;-68
2021/08/31 00:55:23;;;;;;;6.72;5.13;;;;;;;16.62;72.11;101216.09;688616;28;22414;-69
2021/08/31 00:55:46;;;;;;;7.20;4.97;;;;;;;16.61;72.01;101221.75;689443;28;23355;-67
2021/08/31 00:56:07;;;;;;;8.27;5.18;;;;;;;16.62;72.03;101218.00;687180;28;69591;-67
2021/08/31 00:56:28;;;;;;;6.63;5.22;;;;;;;16.60;72.16;101217.34;688364;28;46367;-69
2021/08/31 00:56:51;;;;;;;6.30;4.85;;;;;;;16.60;71.98;101217.34;689134;28;21528;-68
2021/08/31 00:57:14;;;;;;;5.32;4.82;;;;;;;16.60;72.10;101214.63;688858;28;44275;-67
2021/08/31 00:57:35;;;;;;;5.47;4.50;;;;;;;16.62;72.16;101218.00;687797;28;69425;-67
2021/08/31 00:57:56;;;;;;;8.52;5.05;;;;;;;16.62;72.04;101220.72;688747;28;44360;-69
2021/08/31 00:58:17;;;;;;;8.18;5.40;;;;;;;16.60;72.05;101223.66;689012;28;22440;-67
2021/08/31 00:58:38;;;;;;;5.32;4.82;;;;;;;16.61;71.86;101221.75;689597;28;23359;-68
2021/08/31 00:59:00;;;;;;;5.45;4.95;;;;;;;16.60;71.99;101220.06;690235;28;22406;-67
2021/08/31 00:59:22;;;;;;;6.55;4.78;;;;;;;16.59;72.02;101216.50;689380;28;44413;-67
2021/08/31 00:59:43;;;;;;;8.70;5.15;;;;;;;16.60;71.96;101220.94;690703;28;2625;-67
2021/08/31 01:00:05;;;;;;;8.93;5.25;;;;;;;16.58;72.01;101215.69;689392;28;23422;-70
2021/08/31 01:00:29;;;;;;;6.95;4.95;;;;;;;16.61;71.96;101219.03;686714;28;113558;-69
2021/08/31 01:00:50;;;;;;;5.82;4.78;;;;;;;16.60;71.85;101220.06;689246;28;47272;-69
2021/08/31 01:01:12;;;;;;;7.68;5.00;;;;;;;16.59;71.87;101221.97;689556;28;22433;-67
2021/08/31 01:01:34;;;;;;;5.93;4.70;;;;;;;16.58;71.94;101221.13;690119;28;22199;-67
2021/08/31 01:01:57;;;;;;;5.40;4.70;;;;;;;16.57;72.04;101221.34;688454;28;46137;-67
2021/08/31 01:02:18;;;;;;;6.60;5.20;;;;;;;16.57;71.87;101219.44;688292;28;69447;-67
2021/08/31 01:02:39;;;;;;;7.18;5.30;;;;;;;16.57;71.94;101215.88;690224;28;21540;-68
2021/08/31 01:03:00;;;;;;;6.47;4.90;;;;;;;16.56;72.02;101216.91;689959;28;24315;-67
2021/08/31 01:03:22;;;;;;;7.82;5.20;;;;;;;16.57;72.12;101218.63;690605;28;21053;-68
2021/08/31 01:03:44;;;;;;;6.82;4.85;;;;;;;16.57;72.11;101218.63;691973;28;44925;-67
2021/08/31 01:04:05;;;;;;;7.15;4.85;;;;;;;16.57;72.19;101219.44;691776;28;44410;-69
2021/08/31 01:04:27;;;;;;;6.70;5.20;;;;;;;16.59;72.13;101221.97;692780;28;22373;-68
2021/08/31 01:04:48;;;;;;;5.80;4.95;;;;;;;16.57;72.02;101215.88;691725;28;45370;-67
2021/08/31 01:05:11;;;;;;;6.10;4.90;;;;;;;16.59;72.12;101221.97;692013;28;21533;-67
2021/08/31 01:05:32;;;;;;;6.68;4.80;;;;;;;16.58;72.14;101221.13;690959;28;70351;-68
2021/08/31 01:05:55;;;;;;;6.72;4.85;;;;;;;16.60;72.13;101223.66;692893;28;22273;-67
2021/08/31 01:06:17;;;;;;;5.88;4.70;;;;;;;16.60;72.08;101220.06;690905;28;69462;-67
2021/08/31 01:06:39;;;;;;;7.20;4.97;;;;;;;16.60;72.04;101226.38;691310;28;45270;-67
2021/08/31 01:07:00;;;;;;;6.97;5.27;;;;;;;16.57;72.04;101210.44;691381;28;46027;-67
2021/08/31 01:07:21;;;;;;;5.75;4.97;;;;;;;16.58;72.10;101210.22;691807;28;45338;-68
2021/08/31 01:07:43;;;;;;;6.57;5.05;;;;;;;16.60;71.99;101218.19;691991;28;21361;-67
2021/08/31 01:08:05;;;;;;;7.88;4.90;;;;;;;16.60;72.20;101220.06;691675;28;44414;-70
2021/08/31 01:08:27;;;;;;;8.35;5.05;;;;;;;16.60;72.18;101220.06;691220;28;46424;-67
2021/08/31 01:08:48;;;;;;;8.55;5.07;;;;;;;16.61;72.01;101216.31;692704;28;22364;-68
2021/08/31 01:09:10;;;;;;;5.97;4.90;;;;;;;16.60;72.04;101212.75;692749;28;23471;-69
2021/08/31 01:09:32;;;;;;;6.65;4.97;;;;;;;16.60;72.22;101211.88;690962;28;70767;-68
2021/08/31 01:09:53;;;;;;;5.65;4.85;;;;;;;16.60;72.08;101207.28;692524;28;22415;-68
2021/08/31 01:10:17;;;;;;;7.25;4.95;;;;;;;16.62;72.03;101215.28;692283;28;23471;-68
2021/08/31 01:10:39;;;;;;;7.68;5.05;;;;;;;16.61;71.94;101214.41;688787;28;90761;-68
2021/08/31 01:11:01;;;;;;;6.40;4.95;;;;;;;16.62;71.98;101218.84;691741;28;46480;-67
2021/08/31 01:11:23;;;;;;;7.72;5.30;;;;;;;16.63;72.02;101214.22;690815;28;67494;-67
2021/08/31 01:11:46;;;;;;;6.72;5.03;;;;;;;16.62;72.03;101215.28;692148;28;23509;-68
2021/08/31 01:12:08;;;;;;;8.07;5.20;;;;;;;16.63;71.96;101214.22;690375;28;66879;-67
2021/08/31 01:12:29;;;;;;;6.38;4.85;;;;;;;16.61;72.03;101211.69;691244;28;45307;-69
2021/08/31 01:12:51;;;;;;;5.43;4.70;;;;;;;16.63;71.96;101215.06;692604;28;22424;-67
2021/08/31 01:13:13;;;;;;;5.45;4.80;;;;;;;16.60;72.07;101207.28;691262;28;67512;-68
2021/08/31 01:13:36;;;;;;;8.95;5.07;;;;;;;16.63;72.02;101212.34;690922;28;46311;-67
2021/08/31 01:13:58;;;;;;;7.28;5.07;;;;;;;16.63;72.11;101214.22;691989;28;46363;-69
2021/08/31 01:14:19;;;;;;;6.35;4.95;;;;;;;16.63;72.08;101212.34;691008;28;67511;-68
2021/08/31 01:14:41;;;;;;;6.55;5.00;;;;;;;16.63;71.95;101216.94;692595;28;23461;-68
2021/08/31 01:15:03;;;;;;;6.47;4.88;;;;;;;16.63;71.90;101215.06;692373;28;22407;-68
2021/08/31 01:15:25;;;;;;;7.43;4.97;;;;;;;16.64;71.98;101218.63;691140;28;44405;-68
2021/08/31 01:15:47;;;;;;;6.47;4.80;;;;;;;16.63;72.01;101206.88;691484;28;55943;-67
2021/08/31 01:16:08;;;;;;;8.57;5.07;;;;;;;16.60;71.92;101209.16;692639;28;23502;-68
2021/08/31 01:16:30;;;;;;;8.38;5.13;;;;;;;16.63;71.91;101211.47;692888;28;23432;-69
2021/08/31 01:16:53;;;;;;;6.60;5.00;;;;;;;16.62;71.82;101213.38;691099;28;70056;-68
2021/08/31 01:17:15;;;;;;;6.57;4.88;;;;;;;16.62;71.90;101215.28;690115;28;92358;-68
2021/08/31 01:17:36;;;;;;;6.80;5.05;;;;;;;16.63;71.93;101214.22;692773;28;22165;-68
2021/08/31 01:17:58;;;;;;;6.03;5.20;;;;;;;16.61;71.89;101210.84;692620;28;24395;-67
2021/08/31 01:18:21;;;;;;;8.15;5.30;;;;;;;16.60;71.83;101209.16;691976;28;46342;-67
2021/08/31 01:18:42;;;;;;;8.45;5.00;;;;;;;16.57;71.92;101215.88;690598;28;67294;-67
2021/08/31 01:19:03;;;;;;;8.77;5.20;;;;;;;16.60;71.83;101220.06;692684;28;22355;-69
2021/08/31 01:19:29;;;;;;;7.15;5.32;;;;;;;16.60;71.88;101220.94;692042;28;46487;-68
2021/08/31 01:19:50;;;;;;;7.88;4.95;;;;;;;16.60;71.83;101209.16;689614;28;115149;-68
2021/08/31 01:20:12;;;;;;;6.65;4.80;;;;;;;16.58;71.83;101218.41;692590;28;21525;-67
2021/08/31 01:20:56;;;;;;;6.28;4.70;;;;;;;16.58;72.00;101221.13;688521;28;135579;-69
2021/08/31 01:21:17;;;;;;;6.75;4.80;;;;;;;16.59;71.92;101216.50;692131;28;92299;-68
2021/08/31 01:21:38;;;;;;;6.88;4.82;;;;;;;16.57;72.09;101208.53;695165;28;23719;-68
2021/08/31 01:22:01;;;;;;;8.25;5.10;;;;;;;16.58;71.94;101217.53;695073;28;22421;-70
2021/08/31 01:22:23;;;;;;;7.57;5.25;;;;;;;16.58;72.00;101212.97;692993;28;71029;-67
2021/08/31 01:22:44;;;;;;;9.50;5.60;;;;;;;16.58;72.06;101218.41;694355;28;44363;-68
2021/08/31 01:23:05;;;;;;;8.52;5.43;;;;;;;16.55;72.03;101210.63;694397;28;22420;-68
2021/08/31 01:23:27;;;;;;;6.25;4.85;;;;;;;16.59;72.09;101216.50;694734;28;22318;-68
2021/08/31 01:23:49;;;;;;;7.43;5.15;;;;;;;16.56;71.90;101212.28;693000;28;46433;-68
2021/08/31 01:24:11;;;;;;;7.40;5.20;;;;;;;16.58;72.03;101212.09;691618;28;46245;-68
2021/08/31 01:24:33;;;;;;;5.55;5.00;;;;;;;16.58;72.10;101206.63;691858;28;44416;-67
2021/08/31 01:24:56;;;;;;;6.13;4.90;;;;;;;16.59;72.16;101208.34;691904;28;45237;-68
2021/08/31 01:25:17;;;;;;;7.18;5.07;;;;;;;16.57;72.01;101208.53;689859;28;69260;-69
2021/08/31 01:25:39;;;;;;;7.28;5.00;;;;;;;16.59;72.00;101213.78;692358;28;23271;-68
2021/08/31 01:26:02;;;;;;;8.45;5.13;;;;;;;16.60;72.01;101217.34;692101;28;44375;-68
2021/08/31 01:26:23;;;;;;;7.00;5.05;;;;;;;16.60;72.07;101217.34;690918;28;69063;-67
2021/08/31 01:26:44;;;;;;;7.15;5.43;;;;;;;16.60;72.01;101214.63;692597;28;22575;-68
2021/08/31 01:27:05;;;;;;;6.97;5.07;;;;;;;16.62;71.94;101220.72;692223;28;22402;-68
2021/08/31 01:27:28;;;;;;;6.57;4.82;;;;;;;16.61;72.10;101219.03;692694;28;23534;-68
2021/08/31 01:27:49;;;;;;;5.43;4.78;;;;;;;16.62;72.02;101218.84;690282;28;69427;-69
2021/08/31 01:28:15;;;;;;;6.47;4.95;;;;;;;16.62;71.89;101218.00;692715;28;22407;-68
2021/08/31 01:28:36;;;;;;;7.18;5.15;;;;;;;16.61;71.93;101222.59;688449;28;136467;-68
2021/08/31 01:28:59;;;;;;;6.82;5.07;;;;;;;16.62;71.84;101209.81;692780;28;22218;-68
2021/08/31 01:29:20;;;;;;;7.03;4.78;;;;;;;16.58;71.72;101210.22;690800;28;69464;-68
2021/08/31 01:29:42;;;;;;;5.97;5.07;;;;;;;16.61;71.78;101213.59;692762;28;20846;-69
2021/08/31 01:30:04;;;;;;;5.60;5.10;;;;;;;16.59;71.80;101205.59;692743;28;22415;-68
2021/08/31 01:30:25;;;;;;;7.60;5.15;;;;;;;16.60;71.89;101214.63;691349;28;45247;-68
2021/08/31 01:30:48;;;;;;;8.45;5.13;;;;;;;16.58;71.92;101207.50;691815;28;23641;-68
2021/08/31 01:31:09;;;;;;;7.90;5.00;;;;;;;16.60;71.98;101217.34;690158;28;90788;-69
2021/08/31 01:31:31;;;;;;;6.90;4.95;;;;;;;16.59;71.99;101208.34;692311;28;22347;-68
2021/08/31 01:31:52;;;;;;;7.10;5.05;;;;;;;16.58;72.02;101215.69;691800;28;44380;-68
2021/08/31 01:32:14;;;;;;;6.00;4.88;;;;;;;16.59;71.82;101213.78;692462;28;21752;-68
2021/08/31 01:32:35;;;;;;;7.80;4.90;;;;;;;16.58;71.91;101210.22;691461;28;44342;-68
2021/08/31 01:32:56;;;;;;;7.10;5.00;;;;;;;16.57;71.91;101211.25;692321;28;21555;-68
2021/08/31 01:33:20;;;;;;;5.40;4.90;;;;;;;16.59;72.00;101216.50;692607;28;21540;-68
2021/08/31 01:33:43;;;;;;;7.68;5.18;;;;;;;16.55;71.91;101210.63;688564;28;111992;-68
2021/08/31 01:34:04;;;;;;;6.37;5.10;;;;;;;16.59;71.80;101213.78;691187;28;70039;-69
2021/08/31 01:34:25;;;;;;;8.05;5.20;;;;;;;16.59;72.08;101213.78;692047;28;46398;-68
2021/08/31 01:34:46;;;;;;;7.93;5.10;;;;;;;16.59;71.99;101219.25;692538;28;23468;-68
2021/08/31 01:35:09;;;;;;;5.88;4.97;;;;;;;16.59;71.88;101213.78;692103;28;22147;-68
2021/08/31 01:35:30;;;;;;;6.07;4.93;;;;;;;16.60;72.01;101214.63;691417;28;44417;-69
2021/08/31 01:35:51;;;;;;;6.85;4.85;;;;;;;16.61;71.97;101221.75;692712;28;23466;-68
2021/08/31 01:36:16;;;;;;;5.95;5.25;;;;;;;16.61;72.02;101219.88;692730;28;21615;-68
2021/08/31 01:36:38;;;;;;;6.25;5.22;;;;;;;16.61;72.03;101213.59;686632;28;138032;-68
2021/08/31 01:36:59;;;;;;;8.38;5.35;;;;;;;16.61;71.97;101213.59;690791;28;44387;-67
2021/08/31 01:37:20;;;;;;;7.63;5.07;;;;;;;16.61;71.82;101214.41;690688;28;44431;-68
2021/08/31 01:37:41;;;;;;;6.20;5.43;;;;;;;16.61;71.98;101222.59;690623;28;22417;-68
2021/08/31 01:38:04;;;;;;;7.63;5.50;;;;;;;16.60;71.88;101222.78;691539;28;21530;-68
2021/08/31 01:38:25;;;;;;;8.60;5.40;;;;;;;16.58;71.86;101210.22;690608;28;44461;-67
2021/08/31 01:38:46;;;;;;;6.60;4.85;;;;;;;16.56;71.82;101215.03;692890;28;1573;-69
2021/08/31 01:39:07;;;;;;;6.10;4.70;;;;;;;16.59;72.09;101213.78;692804;28;22421;-68
2021/08/31 01:39:29;;;;;;;7.50;4.90;;;;;;;16.58;72.01;101215.69;692825;28;21607;-68
2021/08/31 01:39:50;;;;;;;8.18;5.07;;;;;;;16.56;71.94;101217.75;691703;28;44321;-68
2021/08/31 01:40:13;;;;;;;6.88;5.00;;;;;;;16.56;71.86;101209.56;692537;28;22346;-68
2021/08/31 01:40:35;;;;;;;5.50;4.97;;;;;;;16.57;72.05;101207.72;689494;28;68845;-68
2021/08/31 01:40:56;;;;;;;6.43;5.07;;;;;;;16.59;71.96;101211.06;692017;28;45232;-68
2021/08/31 01:41:17;;;;;;;7.85;5.07;;;;;;;16.57;72.02;101207.72;692403;28;24314;-68
2021/08/31 01:41:39;;;;;;;5.85;5.07;;;;;;;16.59;72.10;101219.25;692784;28;23468;-68
2021/08/31 01:42:01;;;;;;;7.40;5.25;;;;;;;16.60;71.94;101215.47;692554;28;22206;-68
2021/08/31 01:42:22;;;;;;;7.53;5.18;;;;;;;16.61;72.21;101217.13;691685;28;43614;-68